createdAt,value
2022-08-26T00:00:27.511Z,16.50
2022-08-26T00:01:29.640Z,16.51
2022-08-26T00:02:27.574Z,16.50
2022-08-26T00:03:27.477Z,16.51
2022-08-26T00:04:27.532Z,16.53
2022-08-26T00:05:27.459Z,16.53
2022-08-26T00:06:27.434Z,16.51
2022-08-26T00:07:27.427Z,16.50
2022-08-26T00:08:27.416Z,16.51
2022-08-26T00:09:27.401Z,16.50
2022-08-26T00:10:27.393Z,16.49
2022-08-26T00:11:27.390Z,16.47
2022-08-26T00:12:37.349Z,16.46
2022-08-26T00:13:28.386Z,16.42
2022-08-26T00:14:31.235Z,16.41
2022-08-26T00:15:27.341Z,16.41
2022-08-26T00:16:27.321Z,16.41
2022-08-26T00:17:27.303Z,16.41
2022-08-26T00:18:27.294Z,16.41
2022-08-26T00:19:27.279Z,16.39
2022-08-26T00:20:27.265Z,16.38
2022-08-26T00:21:27.256Z,16.35
2022-08-26T00:22:27.241Z,16.36
2022-08-26T00:23:28.956Z,16.33
2022-08-26T00:24:27.217Z,16.35
2022-08-26T00:25:27.205Z,16.33
2022-08-26T00:26:28.511Z,16.31
2022-08-26T00:27:27.189Z,16.28
2022-08-26T00:28:27.174Z,16.24
2022-08-26T00:29:27.157Z,16.23
2022-08-26T00:30:27.153Z,16.20
2022-08-26T00:31:27.209Z,16.16
2022-08-26T00:32:27.117Z,16.15
2022-08-26T00:33:27.104Z,16.10
2022-08-26T00:34:27.088Z,16.05
2022-08-26T00:35:28.027Z,16.02
2022-08-26T00:36:29.532Z,16.01
2022-08-26T00:37:27.052Z,16.01
2022-08-26T00:38:27.044Z,16.01
2022-08-26T00:39:27.031Z,16.00
2022-08-26T00:40:27.164Z,16.00
2022-08-26T00:41:27.003Z,15.98
2022-08-26T00:42:26.987Z,15.98
2022-08-26T00:43:26.978Z,15.98
2022-08-26T00:44:26.962Z,15.97
2022-08-26T00:45:27.039Z,15.95
2022-08-26T00:46:26.939Z,15.95
2022-08-26T00:47:26.924Z,15.97
2022-08-26T00:48:26.911Z,15.97
2022-08-26T00:49:26.901Z,15.94
2022-08-26T00:50:26.887Z,15.95
2022-08-26T00:51:29.657Z,15.95
2022-08-26T00:52:26.866Z,15.94
2022-08-26T00:53:27.925Z,15.92
2022-08-26T00:54:27.238Z,15.91
2022-08-26T00:55:27.537Z,15.90
2022-08-26T00:56:27.838Z,15.88
2022-08-26T00:57:26.808Z,15.83
2022-08-26T00:58:26.780Z,15.83
2022-08-26T00:59:26.767Z,15.82
2022-08-26T01:00:26.752Z,15.82
2022-08-26T01:01:26.766Z,15.82
2022-08-26T01:02:26.767Z,15.83
2022-08-26T01:03:26.748Z,15.82
2022-08-26T01:04:26.702Z,15.80
2022-08-26T01:05:26.696Z,15.79
2022-08-26T01:06:26.680Z,15.80
2022-08-26T01:07:27.429Z,15.77
2022-08-26T01:08:26.649Z,15.79
2022-08-26T01:09:26.636Z,15.77
2022-08-26T01:10:26.626Z,15.79
2022-08-26T01:11:26.613Z,15.77
2022-08-26T01:12:26.600Z,15.76
2022-08-26T01:13:26.588Z,15.76
2022-08-26T01:14:26.582Z,15.76
2022-08-26T01:15:26.559Z,15.75
2022-08-26T01:16:26.595Z,15.73
2022-08-26T01:17:26.537Z,15.70
2022-08-26T01:18:26.520Z,15.70
2022-08-26T01:19:26.510Z,15.70
2022-08-26T01:20:26.493Z,15.72
2022-08-26T01:21:26.484Z,15.65
2022-08-26T01:22:28.276Z,15.62
2022-08-26T01:23:26.459Z,15.62
2022-08-26T01:24:26.447Z,15.62
2022-08-26T01:25:26.434Z,15.61
2022-08-26T01:26:26.417Z,15.61
2022-08-26T01:27:26.408Z,15.62
2022-08-26T01:28:26.398Z,15.62
2022-08-26T01:29:26.382Z,15.62
2022-08-26T01:30:26.366Z,15.62
2022-08-26T01:31:26.443Z,15.62
2022-08-26T01:32:26.344Z,15.61
2022-08-26T01:33:26.327Z,15.59
2022-08-26T01:34:26.318Z,15.58
2022-08-26T01:35:26.304Z,15.59
2022-08-26T01:36:26.293Z,15.59
2022-08-26T01:37:26.282Z,15.59
2022-08-26T01:38:26.266Z,15.59
2022-08-26T01:39:26.246Z,15.57
2022-08-26T01:40:26.272Z,15.54
2022-08-26T01:41:27.470Z,15.54
2022-08-26T01:42:26.212Z,15.54
2022-08-26T01:43:26.201Z,15.51
2022-08-26T01:44:26.188Z,15.49
2022-08-26T01:45:26.254Z,15.44
2022-08-26T01:46:26.159Z,15.44
2022-08-26T01:47:26.146Z,15.44
2022-08-26T01:48:26.134Z,15.46
2022-08-26T01:49:26.162Z,15.46
2022-08-26T01:50:27.764Z,15.42
2022-08-26T01:51:26.095Z,15.43
2022-08-26T01:52:27.461Z,15.43
2022-08-26T01:53:26.066Z,15.43
2022-08-26T01:54:26.053Z,15.42
2022-08-26T01:55:32.969Z,15.40
2022-08-26T01:56:26.029Z,15.40
2022-08-26T01:57:27.044Z,15.40
2022-08-26T01:58:26.004Z,15.36
2022-08-26T01:59:25.994Z,15.35
2022-08-26T02:00:25.980Z,15.33
2022-08-26T02:01:28.951Z,15.33
2022-08-26T02:02:25.953Z,15.31
2022-08-26T02:03:25.966Z,15.33
2022-08-26T02:04:25.985Z,15.31
2022-08-26T02:05:25.913Z,15.29
2022-08-26T02:06:25.908Z,15.28
2022-08-26T02:07:26.665Z,15.29
2022-08-26T02:08:25.876Z,15.27
2022-08-26T02:09:25.859Z,15.29
2022-08-26T02:10:25.849Z,15.29
2022-08-26T02:11:25.836Z,15.28
2022-08-26T02:12:25.819Z,15.27
2022-08-26T02:13:25.809Z,15.28
2022-08-26T02:14:26.772Z,15.27
2022-08-26T02:15:25.782Z,15.24
2022-08-26T02:16:25.810Z,15.22
2022-08-26T02:17:25.756Z,15.21
2022-08-26T02:18:25.744Z,15.19
2022-08-26T02:19:25.731Z,15.18
2022-08-26T02:20:26.805Z,15.17
2022-08-26T02:21:25.705Z,15.18
2022-08-26T02:22:25.698Z,15.18
2022-08-26T02:23:25.680Z,15.18
2022-08-26T02:24:27.590Z,15.15
2022-08-26T02:25:25.650Z,15.11
2022-08-26T02:26:26.968Z,15.10
2022-08-26T02:27:25.631Z,15.10
2022-08-26T02:28:26.586Z,15.10
2022-08-26T02:29:25.599Z,15.11
2022-08-26T02:30:26.015Z,15.11
2022-08-26T02:31:25.624Z,15.10
2022-08-26T02:32:25.568Z,15.10
2022-08-26T02:33:25.548Z,15.09
2022-08-26T02:34:25.539Z,15.10
2022-08-26T02:35:25.524Z,15.10
2022-08-26T02:36:28.416Z,15.11
2022-08-26T02:37:25.502Z,15.11
2022-08-26T02:38:25.491Z,15.07
2022-08-26T02:39:25.474Z,15.06
2022-08-26T02:40:25.507Z,15.04
2022-08-26T02:41:25.449Z,15.06
2022-08-26T02:42:25.433Z,15.06
2022-08-26T02:43:31.675Z,15.04
2022-08-26T02:44:26.440Z,15.02
2022-08-26T02:45:25.395Z,15.02
2022-08-26T02:46:27.757Z,14.99
2022-08-26T02:47:25.367Z,14.97
2022-08-26T02:48:25.356Z,14.99
2022-08-26T02:49:25.343Z,14.96
2022-08-26T02:50:25.330Z,14.92
2022-08-26T02:51:25.317Z,14.97
2022-08-26T02:52:25.304Z,14.99
2022-08-26T02:53:25.703Z,14.96
2022-08-26T02:54:25.278Z,14.92
2022-08-26T02:55:25.266Z,14.91
2022-08-26T02:56:25.249Z,14.89
2022-08-26T02:57:25.237Z,14.89
2022-08-26T02:58:25.223Z,14.88
2022-08-26T02:59:25.212Z,14.85
2022-08-26T03:00:25.236Z,14.86
2022-08-26T03:01:25.246Z,14.86
2022-08-26T03:02:25.227Z,14.88
2022-08-26T03:03:25.162Z,14.89
2022-08-26T03:04:25.940Z,14.89
2022-08-26T03:05:25.133Z,14.86
2022-08-26T03:06:25.123Z,14.84
2022-08-26T03:07:25.110Z,14.84
2022-08-26T03:08:25.096Z,14.82
2022-08-26T03:09:25.082Z,14.77
2022-08-26T03:10:25.079Z,14.77
2022-08-26T03:11:27.525Z,14.81
2022-08-26T03:12:25.580Z,14.84
2022-08-26T03:13:25.031Z,14.84
2022-08-26T03:14:25.021Z,14.85
2022-08-26T03:15:25.009Z,14.86
2022-08-26T03:16:25.050Z,14.86
2022-08-26T03:17:24.981Z,14.85
2022-08-26T03:18:24.966Z,14.84
2022-08-26T03:19:24.954Z,14.82
2022-08-26T03:20:24.945Z,14.86
2022-08-26T03:21:24.925Z,14.86
2022-08-26T03:22:24.914Z,14.85
2022-08-26T03:23:24.900Z,14.85
2022-08-26T03:24:24.887Z,14.88
2022-08-26T03:25:24.879Z,14.84
2022-08-26T03:26:24.862Z,14.85
2022-08-26T03:27:24.849Z,14.85
2022-08-26T03:28:24.836Z,14.86
2022-08-26T03:29:24.827Z,14.85
2022-08-26T03:30:24.811Z,14.86
2022-08-26T03:31:24.854Z,14.86
2022-08-26T03:32:27.202Z,14.88
2022-08-26T03:33:24.772Z,14.89
2022-08-26T03:34:24.758Z,14.89
2022-08-26T03:35:24.745Z,14.88
2022-08-26T03:36:24.737Z,14.85
2022-08-26T03:37:24.718Z,14.82
2022-08-26T03:38:24.711Z,14.79
2022-08-26T03:39:24.695Z,14.79
2022-08-26T03:40:24.801Z,14.81
2022-08-26T03:41:24.666Z,14.81
2022-08-26T03:42:24.652Z,14.79
2022-08-26T03:43:24.654Z,14.79
2022-08-26T03:44:24.627Z,14.77
2022-08-26T03:45:24.616Z,14.73
2022-08-26T03:46:24.653Z,14.69
2022-08-26T03:47:24.589Z,14.65
2022-08-26T03:48:24.575Z,14.65
2022-08-26T03:49:24.563Z,14.65
2022-08-26T03:50:24.550Z,14.65
2022-08-26T03:51:24.538Z,14.66
2022-08-26T03:52:24.524Z,14.69
2022-08-26T03:53:24.511Z,14.72
2022-08-26T03:54:24.500Z,14.70
2022-08-26T03:55:24.486Z,14.70
2022-08-26T03:56:24.473Z,14.69
2022-08-26T03:57:24.457Z,14.69
2022-08-26T03:58:24.443Z,14.69
2022-08-26T03:59:24.431Z,14.65
2022-08-26T04:00:24.422Z,14.62
2022-08-26T04:01:24.480Z,14.55
2022-08-26T04:02:24.419Z,14.59
2022-08-26T04:03:24.423Z,14.59
2022-08-26T04:04:24.401Z,14.54
2022-08-26T04:05:24.354Z,14.55
2022-08-26T04:06:24.365Z,14.55
2022-08-26T04:07:24.328Z,14.53
2022-08-26T04:08:24.316Z,14.51
2022-08-26T04:09:24.303Z,14.50
2022-08-26T04:10:28.595Z,14.48
2022-08-26T04:11:24.281Z,14.45
2022-08-26T04:12:24.264Z,14.48
2022-08-26T04:13:24.253Z,14.45
2022-08-26T04:14:24.235Z,14.43
2022-08-26T04:15:24.226Z,14.45
2022-08-26T04:16:24.259Z,14.47
2022-08-26T04:17:24.999Z,14.47
2022-08-26T04:18:24.185Z,14.48
2022-08-26T04:19:24.174Z,14.48
2022-08-26T04:20:24.159Z,14.47
2022-08-26T04:21:24.146Z,14.45
2022-08-26T04:22:25.053Z,14.41
2022-08-26T04:23:24.119Z,14.40
2022-08-26T04:24:24.108Z,14.33
2022-08-26T04:25:24.279Z,14.35
2022-08-26T04:26:24.082Z,14.40
2022-08-26T04:27:24.068Z,14.37
2022-08-26T04:28:24.057Z,14.37
2022-08-26T04:29:24.052Z,14.41
2022-08-26T04:30:24.067Z,14.41
2022-08-26T04:31:24.077Z,14.45
2022-08-26T04:32:24.005Z,14.47
2022-08-26T04:33:32.493Z,14.47
2022-08-26T04:34:25.010Z,14.47
2022-08-26T04:35:26.133Z,14.44
2022-08-26T04:36:23.953Z,14.45
2022-08-26T04:37:23.940Z,14.43
2022-08-26T04:38:23.934Z,14.40
2022-08-26T04:39:23.915Z,14.41
2022-08-26T04:40:24.070Z,14.40
2022-08-26T04:41:23.888Z,14.37
2022-08-26T04:42:26.058Z,14.40
2022-08-26T04:43:23.860Z,14.41
2022-08-26T04:44:23.876Z,14.44
2022-08-26T04:45:23.837Z,14.44
2022-08-26T04:46:23.860Z,14.43
2022-08-26T04:47:23.813Z,14.43
2022-08-26T04:48:23.799Z,14.40
2022-08-26T04:49:23.784Z,14.37
2022-08-26T04:50:23.771Z,14.41
2022-08-26T04:51:23.754Z,14.41
2022-08-26T04:52:23.747Z,14.44
2022-08-26T04:53:23.730Z,14.47
2022-08-26T04:54:23.720Z,14.48
2022-08-26T04:55:37.350Z,14.48
2022-08-26T04:56:24.723Z,14.50
2022-08-26T04:57:23.681Z,14.51
2022-08-26T04:58:23.669Z,14.50
2022-08-26T04:59:24.577Z,14.50
2022-08-26T05:00:23.642Z,14.48
2022-08-26T05:01:23.927Z,14.48
2022-08-26T05:02:23.619Z,14.47
2022-08-26T05:03:23.603Z,14.47
2022-08-26T05:04:23.665Z,14.50
2022-08-26T05:05:23.579Z,14.51
2022-08-26T05:06:23.565Z,14.51
2022-08-26T05:07:23.552Z,14.48
2022-08-26T05:08:23.543Z,14.47
2022-08-26T05:09:23.530Z,14.43
2022-08-26T05:10:23.517Z,14.40
2022-08-26T05:11:23.501Z,14.40
2022-08-26T05:12:23.488Z,14.41
2022-08-26T05:13:23.479Z,14.44
2022-08-26T05:14:23.514Z,14.45
2022-08-26T05:15:23.449Z,14.51
2022-08-26T05:16:23.477Z,14.58
2022-08-26T05:17:23.420Z,14.63
2022-08-26T05:18:23.408Z,14.69
2022-08-26T05:19:23.398Z,14.69
2022-08-26T05:20:26.129Z,14.77
2022-08-26T05:21:23.370Z,14.82
2022-08-26T05:22:23.361Z,14.85
2022-08-26T05:23:23.348Z,14.88
2022-08-26T05:24:23.334Z,14.91
2022-08-26T05:25:23.319Z,14.94
2022-08-26T05:26:23.378Z,14.94
2022-08-26T05:27:23.295Z,14.94
2022-08-26T05:28:23.281Z,14.96
2022-08-26T05:29:23.269Z,15.02
2022-08-26T05:30:23.251Z,15.07
2022-08-26T05:31:23.275Z,15.10
2022-08-26T05:32:23.226Z,15.17
2022-08-26T05:33:23.217Z,15.22
2022-08-26T05:34:23.200Z,15.29
2022-08-26T05:35:23.191Z,15.42
2022-08-26T05:36:23.177Z,15.51
2022-08-26T05:37:23.163Z,15.58
2022-08-26T05:38:23.147Z,15.65
2022-08-26T05:39:23.137Z,15.73
2022-08-26T05:40:23.203Z,15.79
2022-08-26T05:41:23.107Z,15.88
2022-08-26T05:42:23.099Z,16.00
2022-08-26T05:43:23.082Z,16.10
2022-08-26T05:44:23.073Z,16.26
2022-08-26T05:45:23.060Z,16.41
2022-08-26T05:46:23.084Z,16.64
2022-08-26T05:47:23.031Z,16.90
2022-08-26T05:48:24.402Z,17.26
2022-08-26T05:49:26.379Z,17.67
2022-08-26T05:50:22.993Z,18.11
2022-08-26T05:51:26.020Z,18.68
2022-08-26T05:52:24.620Z,19.22
2022-08-26T05:53:22.959Z,19.73
2022-08-26T05:54:22.940Z,19.92
2022-08-26T05:55:22.928Z,19.81
2022-08-26T05:56:22.914Z,19.52
2022-08-26T05:57:23.215Z,19.21
2022-08-26T05:58:22.892Z,18.84
2022-08-26T05:59:24.365Z,18.62
2022-08-26T06:00:22.867Z,18.53
2022-08-26T06:01:24.157Z,18.47
2022-08-26T06:02:22.887Z,18.43
2022-08-26T06:03:22.832Z,18.55
2022-08-26T06:04:22.815Z,18.92
2022-08-26T06:05:22.800Z,19.77
2022-08-26T06:06:27.603Z,20.81
2022-08-26T06:07:23.803Z,21.89
2022-08-26T06:08:22.766Z,22.85
2022-08-26T06:09:22.748Z,23.63
2022-08-26T06:10:32.094Z,24.32
2022-08-26T06:11:23.753Z,24.96
2022-08-26T06:12:22.708Z,25.43
2022-08-26T06:13:22.695Z,25.87
2022-08-26T06:14:22.682Z,26.25
2022-08-26T06:15:22.673Z,26.09
2022-08-26T06:16:22.727Z,25.98
2022-08-26T06:17:22.647Z,26.21
2022-08-26T06:18:22.631Z,26.45
2022-08-26T06:19:22.621Z,26.66
2022-08-26T06:20:22.604Z,27.15
2022-08-26T06:21:22.589Z,27.45
2022-08-26T06:22:23.442Z,27.85
2022-08-26T06:23:22.573Z,28.01
2022-08-26T06:24:27.137Z,28.04
2022-08-26T06:25:22.542Z,28.01
2022-08-26T06:26:22.524Z,27.67
2022-08-26T06:27:22.521Z,27.68
2022-08-26T06:28:22.499Z,27.71
2022-08-26T06:29:24.692Z,27.71
2022-08-26T06:30:22.523Z,27.80
2022-08-26T06:31:22.537Z,27.80
2022-08-26T06:32:22.456Z,28.10
2022-08-26T06:33:22.444Z,28.48
2022-08-26T06:34:22.434Z,28.94
2022-08-26T06:35:22.409Z,29.36
2022-08-26T06:36:22.392Z,29.65
2022-08-26T06:37:22.390Z,30.05
2022-08-26T06:38:22.369Z,30.34
2022-08-26T06:39:22.359Z,30.57
2022-08-26T06:40:22.388Z,30.70
2022-08-26T06:41:22.331Z,30.75
2022-08-26T06:42:22.318Z,30.53
2022-08-26T06:43:22.307Z,29.39
2022-08-26T06:44:22.296Z,27.86
2022-08-26T06:45:22.282Z,27.17
2022-08-26T06:46:22.301Z,27.96
2022-08-26T06:47:22.254Z,28.49
2022-08-26T06:48:22.243Z,28.51
2022-08-26T06:49:27.490Z,28.47
2022-08-26T06:50:22.220Z,28.49
2022-08-26T06:51:22.331Z,28.42
2022-08-26T06:52:24.618Z,28.76
2022-08-26T06:53:22.179Z,28.66
2022-08-26T06:54:22.174Z,29.12
2022-08-26T06:55:22.152Z,28.85
2022-08-26T06:56:22.136Z,28.60
2022-08-26T06:57:22.124Z,28.39
2022-08-26T06:58:22.115Z,28.47
2022-08-26T06:59:22.100Z,29.08
2022-08-26T07:00:22.092Z,29.45
2022-08-26T07:01:22.127Z,29.24
2022-08-26T07:02:22.087Z,29.27
2022-08-26T07:03:22.037Z,28.81
2022-08-26T07:04:23.078Z,27.82
2022-08-26T07:05:22.019Z,27.02
2022-08-26T07:06:22.012Z,26.74
2022-08-26T07:07:22.171Z,26.43
2022-08-26T07:08:21.979Z,26.06
2022-08-26T07:09:21.970Z,25.98
2022-08-26T07:10:21.941Z,25.84
2022-08-26T07:11:21.951Z,25.58
2022-08-26T07:12:21.935Z,25.21
2022-08-26T07:13:30.640Z,25.41
2022-08-26T07:14:22.930Z,25.32
2022-08-26T07:15:24.002Z,25.04
2022-08-26T07:16:22.929Z,25.44
2022-08-26T07:17:21.873Z,25.58
2022-08-26T07:18:21.856Z,26.68
2022-08-26T07:19:31.129Z,27.70
2022-08-26T07:20:22.924Z,27.59
2022-08-26T07:21:21.814Z,27.29
2022-08-26T07:22:21.810Z,27.07
2022-08-26T07:23:21.785Z,27.63
2022-08-26T07:24:21.775Z,28.48
2022-08-26T07:25:21.783Z,28.45
2022-08-26T07:26:21.752Z,27.33
2022-08-26T07:27:21.737Z,26.56
2022-08-26T07:28:21.724Z,27.67
2022-08-26T07:29:21.718Z,28.51
2022-08-26T07:30:21.808Z,28.76
2022-08-26T07:31:21.740Z,29.26
2022-08-26T07:32:22.853Z,29.81
2022-08-26T07:33:21.663Z,30.46
2022-08-26T07:34:21.648Z,31.03
2022-08-26T07:35:21.635Z,31.43
2022-08-26T07:36:21.626Z,31.21
2022-08-26T07:37:21.613Z,30.80
2022-08-26T07:38:21.602Z,30.35
2022-08-26T07:39:21.584Z,30.27
2022-08-26T07:40:21.675Z,29.17
2022-08-26T07:41:21.605Z,28.67
2022-08-26T07:42:21.548Z,28.74
2022-08-26T07:43:21.537Z,28.56
2022-08-26T07:44:21.530Z,28.42
2022-08-26T07:45:21.523Z,28.14
2022-08-26T07:46:29.911Z,27.68
2022-08-26T07:47:25.195Z,27.12
2022-08-26T07:48:21.637Z,26.88
2022-08-26T07:49:21.700Z,26.63
2022-08-26T07:50:21.448Z,26.44
2022-08-26T07:51:22.470Z,26.03
2022-08-26T07:52:25.902Z,25.66
2022-08-26T07:53:21.408Z,25.43
2022-08-26T07:54:24.604Z,25.11
2022-08-26T07:55:21.391Z,24.84
2022-08-26T07:56:21.370Z,24.65
2022-08-26T07:57:21.360Z,24.36
2022-08-26T07:58:21.379Z,24.28
2022-08-26T07:59:21.373Z,24.18
2022-08-26T08:00:21.333Z,24.01
2022-08-26T08:01:21.412Z,23.87
2022-08-26T08:02:21.305Z,23.74
2022-08-26T08:03:21.304Z,23.63
2022-08-26T08:04:26.065Z,23.44
2022-08-26T08:05:21.264Z,23.28
2022-08-26T08:06:21.251Z,23.17
2022-08-26T08:07:21.239Z,23.12
2022-08-26T08:08:27.616Z,23.09
2022-08-26T08:09:22.496Z,23.03
2022-08-26T08:10:21.201Z,22.90
2022-08-26T08:11:21.205Z,22.88
2022-08-26T08:12:21.174Z,22.93
2022-08-26T08:13:21.157Z,22.80
2022-08-26T08:14:22.346Z,22.75
2022-08-26T08:15:21.138Z,22.72
2022-08-26T08:16:21.163Z,22.70
2022-08-26T08:17:21.104Z,22.73
2022-08-26T08:18:21.091Z,22.75
2022-08-26T08:19:21.079Z,22.76
2022-08-26T08:20:21.069Z,22.75
2022-08-26T08:21:24.148Z,22.78
2022-08-26T08:22:21.330Z,22.72
2022-08-26T08:23:21.030Z,22.68
2022-08-26T08:24:21.017Z,22.73
2022-08-26T08:25:21.001Z,22.69
2022-08-26T08:26:20.987Z,22.70
2022-08-26T08:27:23.841Z,22.72
2022-08-26T08:28:20.957Z,22.73
2022-08-26T08:29:20.952Z,22.83
2022-08-26T08:30:22.926Z,22.80
2022-08-26T08:31:38.756Z,22.80
2022-08-26T08:32:21.941Z,22.83
2022-08-26T08:33:20.903Z,22.84
2022-08-26T08:34:21.597Z,22.88
2022-08-26T08:35:20.874Z,22.96
2022-08-26T08:36:20.855Z,23.02
2022-08-26T08:37:20.840Z,23.05
2022-08-26T08:38:20.833Z,23.08
2022-08-26T08:39:20.849Z,23.09
2022-08-26T08:40:20.999Z,23.09
2022-08-26T08:41:20.792Z,23.12
2022-08-26T08:42:23.498Z,23.17
2022-08-26T08:43:20.760Z,23.21
2022-08-26T08:44:20.830Z,23.24
2022-08-26T08:45:20.734Z,23.31
2022-08-26T08:46:20.781Z,23.40
2022-08-26T08:47:20.812Z,23.46
2022-08-26T08:48:20.688Z,23.51
2022-08-26T08:49:21.708Z,23.59
2022-08-26T08:50:20.665Z,23.63
2022-08-26T08:51:20.654Z,23.61
2022-08-26T08:52:20.642Z,23.62
2022-08-26T08:53:20.626Z,23.59
2022-08-26T08:54:21.889Z,23.63
2022-08-26T08:55:20.599Z,23.68
2022-08-26T08:56:20.594Z,23.77
2022-08-26T08:57:20.581Z,23.86
2022-08-26T08:58:20.572Z,23.92
2022-08-26T08:59:20.555Z,23.98
2022-08-26T09:00:20.543Z,24.03
2022-08-26T09:01:21.641Z,24.11
2022-08-26T09:02:20.588Z,24.16
2022-08-26T09:03:20.509Z,24.21
2022-08-26T09:04:20.494Z,24.28
2022-08-26T09:05:20.479Z,24.32
2022-08-26T09:06:20.464Z,24.33
2022-08-26T09:07:20.449Z,24.39
2022-08-26T09:08:20.438Z,24.38
2022-08-26T09:09:20.426Z,24.40
2022-08-26T09:10:20.409Z,24.47
2022-08-26T09:11:20.396Z,24.50
2022-08-26T09:12:20.399Z,24.53
2022-08-26T09:13:25.216Z,24.57
2022-08-26T09:14:20.357Z,24.65
2022-08-26T09:15:20.344Z,24.68
2022-08-26T09:16:20.537Z,24.70
2022-08-26T09:17:20.322Z,24.70
2022-08-26T09:18:20.302Z,24.73
2022-08-26T09:19:20.295Z,24.74
2022-08-26T09:20:20.286Z,24.73
2022-08-26T09:21:20.268Z,24.74
2022-08-26T09:22:20.257Z,24.76
2022-08-26T09:23:20.246Z,24.78
2022-08-26T09:24:20.234Z,24.81
2022-08-26T09:25:20.213Z,24.84
2022-08-26T09:26:20.205Z,24.81
2022-08-26T09:27:20.188Z,24.85
2022-08-26T09:28:20.171Z,24.85
2022-08-26T09:30:20.159Z,24.80
2022-08-26T09:31:20.203Z,24.84
2022-08-26T09:32:20.206Z,24.86
2022-08-26T09:33:20.105Z,24.84
2022-08-26T09:34:20.106Z,24.80
2022-08-26T09:35:20.078Z,24.74
2022-08-26T09:36:20.068Z,24.73
2022-08-26T09:37:20.053Z,24.70
2022-08-26T09:38:20.046Z,24.73
2022-08-26T09:39:20.025Z,24.70
2022-08-26T09:40:20.399Z,24.70
2022-08-26T09:41:20.002Z,24.73
2022-08-26T09:42:19.990Z,24.73
2022-08-26T09:43:22.259Z,24.70
2022-08-26T09:44:19.960Z,24.73
2022-08-26T09:45:19.948Z,24.73
2022-08-26T09:46:20.028Z,24.74
2022-08-26T09:47:19.930Z,24.77
2022-08-26T09:48:19.906Z,24.81
2022-08-26T09:49:19.899Z,24.91
2022-08-26T09:50:19.883Z,24.96
2022-08-26T09:51:19.869Z,25.01
2022-08-26T09:52:19.854Z,25.01
2022-08-26T09:53:21.024Z,25.01
2022-08-26T09:54:20.763Z,25.04
2022-08-26T09:55:19.813Z,25.11
2022-08-26T09:56:19.799Z,25.14
2022-08-26T09:57:19.789Z,25.18
2022-08-26T09:58:19.774Z,25.28
2022-08-26T09:59:19.760Z,25.33
2022-08-26T10:00:19.747Z,25.35
2022-08-26T10:01:19.776Z,25.36
2022-08-26T10:02:19.717Z,25.35
2022-08-26T10:03:19.706Z,25.35
2022-08-26T10:04:19.751Z,25.41
2022-08-26T10:05:20.007Z,25.44
2022-08-26T10:06:21.058Z,25.44
2022-08-26T10:07:19.654Z,25.58
2022-08-26T10:08:19.639Z,25.63
2022-08-26T10:09:19.625Z,25.63
2022-08-26T10:10:19.609Z,25.69
2022-08-26T10:11:19.598Z,25.77
2022-08-26T10:12:19.582Z,25.78
2022-08-26T10:13:19.591Z,25.83
2022-08-26T10:14:20.223Z,25.85
2022-08-26T10:15:19.543Z,25.87
2022-08-26T10:16:19.622Z,25.93
2022-08-26T10:17:19.521Z,25.95
2022-08-26T10:18:19.508Z,25.98
2022-08-26T10:19:19.496Z,26.02
2022-08-26T10:20:23.152Z,26.03
2022-08-26T10:21:19.475Z,26.02
2022-08-26T10:22:19.456Z,26.07
2022-08-26T10:23:19.444Z,26.15
2022-08-26T10:24:19.434Z,26.21
2022-08-26T10:25:19.420Z,26.22
2022-08-26T10:26:19.422Z,26.26
2022-08-26T10:27:19.391Z,26.29
2022-08-26T10:28:19.394Z,26.25
2022-08-26T10:29:19.370Z,26.18
2022-08-26T10:30:19.355Z,26.05
2022-08-26T10:31:20.005Z,26.00
2022-08-26T10:32:19.491Z,26.03
2022-08-26T10:33:19.317Z,26.05
2022-08-26T10:34:19.303Z,26.00
2022-08-26T10:35:19.285Z,25.96
2022-08-26T10:36:20.321Z,25.96
2022-08-26T10:37:19.261Z,25.95
2022-08-26T10:38:19.247Z,25.91
2022-08-26T10:39:19.255Z,25.91
2022-08-26T10:40:19.240Z,25.87
2022-08-26T10:41:19.204Z,25.85
2022-08-26T10:42:19.197Z,25.83
2022-08-26T10:43:19.185Z,25.83
2022-08-26T10:44:19.171Z,25.84
2022-08-26T10:45:19.155Z,25.83
2022-08-26T10:46:19.196Z,25.85
2022-08-26T10:47:19.125Z,25.90
2022-08-26T10:48:19.119Z,25.95
2022-08-26T10:49:19.107Z,26.00
2022-08-26T10:50:19.091Z,26.05
2022-08-26T10:51:19.072Z,26.15
2022-08-26T10:52:19.068Z,26.22
2022-08-26T10:53:19.054Z,26.26
2022-08-26T10:54:20.068Z,26.34
2022-08-26T10:55:19.026Z,26.36
2022-08-26T10:56:19.431Z,26.41
2022-08-26T10:57:19.006Z,26.44
2022-08-26T10:58:26.412Z,26.41
2022-08-26T10:59:20.006Z,26.41
2022-08-26T11:00:18.977Z,26.43
2022-08-26T11:01:22.705Z,26.47
2022-08-26T11:02:24.182Z,26.48
2022-08-26T11:03:22.062Z,26.45
2022-08-26T11:04:18.990Z,26.43
2022-08-26T11:05:18.897Z,26.41
2022-08-26T11:06:19.022Z,26.33
2022-08-26T11:07:18.872Z,26.26
2022-08-26T11:08:18.872Z,26.18
2022-08-26T11:09:18.849Z,26.07
2022-08-26T11:10:19.860Z,26.00
2022-08-26T11:11:18.821Z,25.90
2022-08-26T11:12:18.807Z,25.88
2022-08-26T11:13:18.794Z,25.90
2022-08-26T11:14:18.781Z,25.85
2022-08-26T11:15:19.797Z,25.83
2022-08-26T11:16:18.799Z,25.77
2022-08-26T11:17:18.743Z,25.70
2022-08-26T11:18:18.732Z,25.69
2022-08-26T11:19:18.716Z,25.68
2022-08-26T11:20:18.699Z,25.60
2022-08-26T11:21:18.693Z,25.51
2022-08-26T11:22:18.677Z,25.44
2022-08-26T11:23:18.666Z,25.36
2022-08-26T11:24:18.651Z,25.28
2022-08-26T11:25:18.650Z,25.23
2022-08-26T11:26:30.083Z,25.21
2022-08-26T11:27:19.654Z,25.11
2022-08-26T11:28:18.600Z,25.08
2022-08-26T11:29:18.590Z,25.03
2022-08-26T11:30:18.679Z,24.98
2022-08-26T11:31:18.638Z,24.96
2022-08-26T11:32:18.549Z,24.92
2022-08-26T11:33:18.536Z,24.89
2022-08-26T11:34:18.532Z,24.80
2022-08-26T11:35:18.512Z,24.65
2022-08-26T11:36:18.498Z,24.51
2022-08-26T11:37:21.563Z,24.42
2022-08-26T11:38:18.486Z,24.24
2022-08-26T11:39:18.471Z,24.20
2022-08-26T11:40:18.532Z,24.16
2022-08-26T11:41:18.437Z,24.14
2022-08-26T11:42:20.208Z,24.18
2022-08-26T11:43:18.408Z,24.21
2022-08-26T11:44:18.392Z,24.23
2022-08-26T11:45:18.379Z,24.28
2022-08-26T11:46:18.437Z,24.28
2022-08-26T11:47:18.354Z,24.32
2022-08-26T11:48:18.342Z,24.38
2022-08-26T11:49:18.331Z,24.43
2022-08-26T11:50:18.315Z,24.47
2022-08-26T11:51:18.297Z,24.48
2022-08-26T11:52:18.288Z,24.50
2022-08-26T11:53:18.274Z,24.54
2022-08-26T11:54:18.259Z,24.53
2022-08-26T11:55:19.273Z,24.55
2022-08-26T11:56:18.229Z,24.55
2022-08-26T11:57:18.223Z,24.43
2022-08-26T11:58:18.260Z,24.35
2022-08-26T11:59:18.190Z,24.26
2022-08-26T12:00:21.103Z,24.23
2022-08-26T12:01:18.168Z,24.20
2022-08-26T12:02:18.238Z,24.20
2022-08-26T12:03:18.186Z,24.16
2022-08-26T12:04:18.298Z,24.13
2022-08-26T12:05:18.112Z,24.10
2022-08-26T12:06:18.167Z,24.06
2022-08-26T12:07:18.585Z,24.08
2022-08-26T12:08:19.103Z,24.08
2022-08-26T12:09:18.069Z,24.08
2022-08-26T12:10:18.053Z,24.08
2022-08-26T12:11:18.032Z,24.05
2022-08-26T12:12:18.032Z,24.03
2022-08-26T12:13:18.008Z,24.03
2022-08-26T12:14:17.990Z,23.95
2022-08-26T12:15:17.982Z,23.93
2022-08-26T12:16:18.016Z,23.92
2022-08-26T12:17:17.957Z,23.88
2022-08-26T12:18:17.938Z,23.86
2022-08-26T12:19:17.926Z,23.80
2022-08-26T12:20:17.922Z,23.76
2022-08-26T12:21:17.903Z,23.74
2022-08-26T12:22:17.893Z,23.74
2022-08-26T12:23:17.877Z,23.73
2022-08-26T12:24:17.860Z,23.68
2022-08-26T12:25:17.862Z,23.65
2022-08-26T12:26:17.830Z,23.59
2022-08-26T12:27:17.818Z,23.59
2022-08-26T12:28:17.814Z,23.59
2022-08-26T12:29:26.517Z,23.58
2022-08-26T12:30:19.282Z,23.55
2022-08-26T12:31:17.809Z,23.56
2022-08-26T12:32:17.781Z,23.51
2022-08-26T12:33:22.767Z,23.48
2022-08-26T12:34:18.511Z,23.47
2022-08-26T12:35:17.726Z,23.46
2022-08-26T12:36:17.702Z,23.46
2022-08-26T12:37:18.878Z,23.44
2022-08-26T12:38:17.680Z,23.40
2022-08-26T12:39:17.671Z,23.37
2022-08-26T12:40:17.711Z,23.31
2022-08-26T12:41:17.653Z,23.27
2022-08-26T12:42:17.748Z,23.25
2022-08-26T12:43:17.608Z,23.23
2022-08-26T12:44:17.604Z,23.17
2022-08-26T12:45:17.595Z,23.13
2022-08-26T12:46:17.574Z,23.08
2022-08-26T12:47:20.433Z,23.03
2022-08-26T12:48:18.582Z,22.98
2022-08-26T12:49:17.532Z,22.96
2022-08-26T12:50:17.519Z,22.98
2022-08-26T12:51:17.511Z,22.96
2022-08-26T12:52:17.502Z,22.94
2022-08-26T12:53:17.482Z,22.91